Time;durP1;ratioP1;P1;durP2;ratioP2;P2;SDS_P1;SDS_P2;PMS_P1;PMS_P2;Temp;Humidity;BMP_temperature;BMP_pressure;BME280_temperature;BME280_humidity;BME280_pressure;Samples;Min_cycle;Max_cycle;Signal;HPM_P1;HPM_P2
2022/03/27 00:02:18;;;;;;;13.32;7.97;;;6.30;99.90;;;;;;6266113;22;20015;-58
2022/03/27 00:04:44;;;;;;;13.18;9.43;;;6.30;99.90;;;;;;6265988;22;20021;-60
2022/03/27 00:07:09;;;;;;;16.83;8.88;;;6.30;99.90;;;;;;6266764;22;20711;-60
2022/03/27 00:09:36;;;;;;;13.85;9.75;;;6.40;99.90;;;;;;6266412;22;20115;-63
2022/03/27 00:12:02;;;;;;;10.20;7.30;;;6.40;99.90;;;;;;6238848;22;20020;-58
2022/03/27 00:14:28;;;;;;;8.85;6.57;;;6.40;99.90;;;;;;6265672;22;20026;-61
2022/03/27 00:16:54;;;;;;;7.40;5.32;;;6.40;99.90;;;;;;6266208;22;20015;-58
2022/03/27 00:19:20;;;;;;;7.40;4.18;;;6.40;99.90;;;;;;6266382;22;20024;-60
2022/03/27 00:21:46;;;;;;;7.10;4.18;;;6.40;99.90;;;;;;6238291;22;20107;-65
2022/03/27 00:24:11;;;;;;;4.72;4.22;;;6.50;99.90;;;;;;6238854;22;20094;-62
2022/03/27 00:26:37;;;;;;;7.28;3.72;;;6.50;99.90;;;;;;6265581;22;20020;-59
2022/03/27 00:29:03;;;;;;;6.95;2.85;;;6.50;99.90;;;;;;6239584;22;20016;-59
2022/03/27 00:31:35;;;;;;;6.22;3.20;;;6.60;99.90;;;;;;6266379;22;20016;-60
2022/03/27 00:34:01;;;;;;;5.38;3.13;;;6.60;99.90;;;;;;6265956;22;20011;-57
2022/03/27 00:36:27;;;;;;;4.10;3.38;;;6.60;99.90;;;;;;6266130;22;20028;-60
2022/03/27 00:38:53;;;;;;;4.43;2.10;;;6.60;99.90;;;;;;6266621;22;20030;-64
2022/03/27 00:41:19;;;;;;;4.45;2.38;;;6.60;99.90;;;;;;6239058;22;20445;-60
2022/03/27 00:43:44;;;;;;;4.40;2.75;;;6.50;99.90;;;;;;6266324;22;20362;-58
2022/03/27 00:46:10;;;;;;;4.45;2.28;;;6.50;99.90;;;;;;6265729;22;20016;-58
2022/03/27 00:48:36;;;;;;;4.20;2.30;;;6.50;99.90;;;;;;6265128;22;20103;-57
2022/03/27 00:51:02;;;;;;;5.28;2.63;;;6.50;99.90;;;;;;6265186;22;20636;-58
2022/03/27 00:53:28;;;;;;;5.07;3.10;;;6.50;99.90;;;;;;6266437;22;20432;-62
2022/03/27 00:55:54;;;;;;;7.13;2.78;;;6.40;99.90;;;;;;6266255;22;20047;-57
2022/03/27 00:58:19;;;;;;;4.15;2.45;;;6.40;99.90;;;;;;6265857;22;20552;-57
2022/03/27 01:01:11;;;;;;;4.13;2.03;;;6.40;99.90;;;;;;6266117;22;20034;-57
2022/03/27 01:03:37;;;;;;;4.63;2.45;;;6.40;99.90;;;;;;6265970;22;20020;-57
2022/03/27 01:06:03;;;;;;;4.35;2.33;;;6.40;99.90;;;;;;6265947;22;20050;-57
2022/03/27 01:11:19;;;;;;;4.70;2.33;;;6.30;99.90;;;;;;6265780;22;20096;-57
2022/03/27 01:13:54;;;;;;;5.03;2.60;;;6.40;99.90;;;;;;6265437;22;20047;-58
2022/03/27 01:16:36;;;;;;;6.38;3.17;;;6.40;99.90;;;;;;6264741;22;20023;-57
2022/03/27 01:19:02;;;;;;;7.20;3.08;;;6.40;99.90;;;;;;6265884;22;20020;-58
2022/03/27 01:21:28;;;;;;;4.75;2.22;;;6.30;99.90;;;;;;6238468;22;20082;-57
2022/03/27 01:23:55;;;;;;;4.18;2.58;;;6.40;99.90;;;;;;6265645;22;20020;-57
2022/03/27 01:26:22;;;;;;;8.35;3.17;;;6.30;99.90;;;;;;6265861;22;20020;-58
2022/03/27 01:28:47;;;;;;;4.72;3.05;;;6.40;99.90;;;;;;6266801;22;20015;-57
2022/03/27 01:31:13;;;;;;;8.27;2.90;;;6.30;99.90;;;;;;6238517;22;20482;-57
2022/03/27 01:33:39;;;;;;;12.70;3.35;;;6.30;99.90;;;;;;6266057;22;20506;-57
2022/03/27 01:36:05;;;;;;;5.40;3.60;;;6.30;99.90;;;;;;6266264;22;20019;-57
2022/03/27 01:38:30;;;;;;;6.35;3.20;;;6.30;99.90;;;;;;6270230;22;20101;-57
2022/03/27 01:40:56;;;;;;;5.78;3.28;;;6.20;99.90;;;;;;6241866;22;20019;-57
2022/03/27 01:43:22;;;;;;;5.20;2.95;;;6.20;99.90;;;;;;6269309;22;20020;-57
2022/03/27 01:45:48;;;;;;;8.43;3.70;;;6.20;99.90;;;;;;6269276;22;20020;-57
2022/03/27 01:48:14;;;;;;;7.15;2.83;;;6.10;99.90;;;;;;6269497;22;20454;-57
2022/03/27 01:50:40;;;;;;;8.68;3.13;;;6.10;99.90;;;;;;6269193;22;20024;-57
2022/03/27 01:53:05;;;;;;;8.40;3.05;;;6.00;99.90;;;;;;6268876;22;20026;-58
2022/03/27 01:55:31;;;;;;;5.60;3.10;;;6.00;99.90;;;;;;6269277;22;20088;-57
2022/03/27 01:57:57;;;;;;;5.35;2.88;;;6.00;99.90;;;;;;6268487;22;20153;-57
2022/03/27 02:00:22;;;;;;;7.88;3.10;;;6.00;99.90;;;;;;6269028;22;20019;-57
2022/03/27 02:02:49;;;;;;;6.32;3.35;;;5.90;99.90;;;;;;6270101;22;20077;-57
2022/03/27 02:05:14;;;;;;;7.07;2.72;;;5.90;99.90;;;;;;6269103;22;20098;-57
2022/03/27 02:07:45;;;;;;;6.10;3.22;;;5.90;99.90;;;;;;6267931;22;20043;-57
2022/03/27 02:10:11;;;;;;;4.82;2.78;;;5.90;99.90;;;;;;6268324;22;20087;-57
2022/03/27 02:12:37;;;;;;;7.25;3.00;;;5.90;99.90;;;;;;6268426;22;20446;-57
2022/03/27 02:15:07;;;;;;;8.80;3.80;;;6.00;99.90;;;;;;6268644;22;20392;-57
2022/03/27 02:17:39;;;;;;;7.82;5.47;;;6.00;99.90;;;;;;6242376;22;20041;-58
2022/03/27 02:20:08;;;;;;;6.95;4.10;;;6.00;99.90;;;;;;6269285;22;20066;-57
2022/03/27 02:22:34;;;;;;;5.03;3.88;;;6.00;99.90;;;;;;6269842;22;20066;-57
2022/03/27 02:25:00;;;;;;;4.97;3.05;;;6.00;99.90;;;;;;6269241;22;20142;-57
2022/03/27 02:27:26;;;;;;;4.72;2.90;;;6.00;99.90;;;;;;6240981;22;20442;-57
2022/03/27 02:29:52;;;;;;;7.75;3.45;;;5.90;99.90;;;;;;6268926;22;20015;-57
2022/03/27 02:32:17;;;;;;;6.45;3.60;;;5.90;99.90;;;;;;6269106;22;20022;-58
2022/03/27 02:34:43;;;;;;;4.38;2.72;;;5.90;99.90;;;;;;6268794;22;20023;-61
2022/03/27 02:37:09;;;;;;;10.25;4.07;;;6.00;99.90;;;;;;6269595;22;20055;-57
2022/03/27 02:39:34;;;;;;;3.63;2.67;;;5.90;99.90;;;;;;6241698;22;20491;-57
2022/03/27 02:42:00;;;;;;;6.53;3.40;;;6.00;99.90;;;;;;6269204;22;20081;-57
2022/03/27 02:44:25;;;;;;;5.55;3.40;;;6.00;99.90;;;;;;6270219;22;20122;-57
2022/03/27 02:46:51;;;;;;;6.50;4.28;;;6.00;99.90;;;;;;6269031;22;20118;-57
2022/03/27 02:49:17;;;;;;;6.63;3.63;;;6.10;99.90;;;;;;6267187;22;20012;-57
2022/03/27 02:51:47;;;;;;;6.28;3.72;;;6.10;99.90;;;;;;6267123;22;20031;-64
2022/03/27 02:54:13;;;;;;;7.55;4.35;;;6.10;99.90;;;;;;6268164;22;20020;-61
2022/03/27 02:56:39;;;;;;;9.50;4.55;;;6.10;99.90;;;;;;6267518;22;20019;-58
2022/03/27 02:59:05;;;;;;;12.05;4.43;;;6.10;99.90;;;;;;6268435;22;20381;-59
2022/03/27 03:01:32;;;;;;;8.13;3.83;;;6.10;99.90;;;;;;6267363;22;20058;-57
2022/03/27 03:03:58;;;;;;;7.68;4.18;;;6.10;99.90;;;;;;6266995;22;20095;-58
2022/03/27 03:06:24;;;;;;;8.35;4.30;;;6.10;99.90;;;;;;6266622;22;20342;-57
2022/03/27 03:08:50;;;;;;;12.40;4.75;;;6.10;99.90;;;;;;6267295;22;20446;-57
2022/03/27 03:11:16;;;;;;;8.00;4.07;;;6.10;99.90;;;;;;6266222;22;20493;-57
2022/03/27 03:13:44;;;;;;;10.45;4.05;;;6.10;99.90;;;;;;6266977;22;20023;-58
2022/03/27 03:16:10;;;;;;;5.50;3.83;;;6.10;99.90;;;;;;6267611;22;20012;-58
2022/03/27 03:18:36;;;;;;;14.02;4.05;;;6.10;99.90;;;;;;6267702;22;20026;-58
2022/03/27 03:21:03;;;;;;;8.70;4.50;;;6.10;99.90;;;;;;6267461;22;20027;-57
2022/03/27 03:23:28;;;;;;;8.88;3.90;;;6.30;99.90;;;;;;6267952;22;20125;-57
2022/03/27 03:25:55;;;;;;;7.43;3.30;;;6.10;99.90;;;;;;6267620;22;20525;-63
2022/03/27 03:28:21;;;;;;;9.40;3.67;;;6.00;99.90;;;;;;6240035;22;20438;-60
2022/03/27 03:30:47;;;;;;;7.47;4.45;;;6.50;99.90;;;;;;6267344;22;20015;-60
2022/03/27 03:33:12;;;;;;;6.15;3.72;;;6.10;99.90;;;;;;6267557;22;20094;-58
2022/03/27 03:35:42;;;;;;;6.88;3.95;;;6.10;99.90;;;;;;6266373;22;20026;-61
2022/03/27 03:38:08;;;;;;;8.27;4.18;;;6.00;99.90;;;;;;6239730;22;20028;-60
2022/03/27 03:40:35;;;;;;;10.50;4.40;;;6.00;99.90;;;;;;6266353;22;20442;-63
2022/03/27 03:43:01;;;;;;;10.48;4.15;;;6.00;99.90;;;;;;6239458;22;20434;-65
2022/03/27 03:45:26;;;;;;;9.20;4.95;;;6.00;99.90;;;;;;6266554;22;20024;-66
2022/03/27 03:47:52;;;;;;;8.48;4.55;;;6.00;99.90;;;;;;6267146;22;20020;-61
2022/03/27 03:50:18;;;;;;;11.05;4.72;;;6.00;99.90;;;;;;6266753;22;20020;-63
2022/03/27 03:52:43;;;;;;;10.52;5.13;;;5.90;99.90;;;;;;6266688;22;20330;-65
2022/03/27 03:55:09;;;;;;;8.68;3.95;;;6.00;99.90;;;;;;6266461;22;20051;-58
2022/03/27 03:57:35;;;;;;;9.80;4.22;;;6.00;99.90;;;;;;6267038;22;20069;-59
2022/03/27 04:00:01;;;;;;;9.85;4.85;;;6.20;99.90;;;;;;6266255;22;20015;-58
2022/03/27 04:02:27;;;;;;;11.05;4.32;;;6.00;99.90;;;;;;6266878;22;20015;-58
2022/03/27 04:04:52;;;;;;;8.65;4.38;;;6.00;99.90;;;;;;6239575;22;20094;-58
2022/03/27 04:07:18;;;;;;;9.27;4.03;;;6.00;99.90;;;;;;6238516;22;20427;-58
2022/03/27 04:09:44;;;;;;;9.63;4.13;;;6.00;99.90;;;;;;6267228;22;20426;-59
2022/03/27 04:12:10;;;;;;;14.95;5.82;;;6.00;99.90;;;;;;6214625;22;20335;-58
2022/03/27 04:14:36;;;;;;;12.00;4.80;;;5.90;99.90;;;;;;6266609;22;20050;-58
2022/03/27 04:17:05;;;;;;;10.30;4.47;;;5.90;99.90;;;;;;6266026;22;20027;-60
2022/03/27 04:19:31;;;;;;;8.82;4.45;;;5.90;99.90;;;;;;6266594;22;20061;-58
2022/03/27 04:21:57;;;;;;;13.18;5.10;;;5.90;99.90;;;;;;6266366;22;20095;-59
2022/03/27 04:24:23;;;;;;;9.60;4.15;;;5.80;99.90;;;;;;6266301;22;20085;-59
2022/03/27 04:26:49;;;;;;;10.88;4.40;;;5.70;99.90;;;;;;6266874;22;20019;-57
2022/03/27 04:29:15;;;;;;;14.52;5.30;;;5.80;99.90;;;;;;6266524;22;20018;-57
2022/03/27 04:31:41;;;;;;;7.60;5.07;;;5.70;99.90;;;;;;6266419;22;20137;-63
2022/03/27 04:34:07;;;;;;;12.60;5.35;;;5.70;99.90;;;;;;6238608;22;20455;-56
2022/03/27 04:36:34;;;;;;;13.65;4.93;;;5.70;99.90;;;;;;6238453;22;20106;-57
2022/03/27 04:38:59;;;;;;;12.52;4.28;;;5.70;99.90;;;;;;6266446;22;20015;-58
2022/03/27 04:41:25;;;;;;;10.23;4.57;;;5.60;99.90;;;;;;6266660;22;20020;-57
2022/03/27 04:43:51;;;;;;;15.60;3.60;;;5.70;99.90;;;;;;6267535;22;20020;-57
2022/03/27 04:46:17;;;;;;;9.77;3.78;;;5.60;99.90;;;;;;6266590;22;20462;-57
2022/03/27 04:48:44;;;;;;;15.93;6.00;;;5.70;99.90;;;;;;6267212;22;20042;-58
2022/03/27 04:51:10;;;;;;;11.25;4.60;;;5.30;99.90;;;;;;6267088;22;20035;-57
2022/03/27 04:53:36;;;;;;;14.23;3.72;;;5.60;99.90;;;;;;6266668;22;20405;-57
2022/03/27 04:56:01;;;;;;;8.30;4.03;;;5.20;99.90;;;;;;6267024;22;20019;-58
2022/03/27 04:58:27;;;;;;;13.43;4.10;;;5.60;99.90;;;;;;6266415;22;20441;-58
2022/03/27 05:00:53;;;;;;;13.05;4.13;;;5.50;99.90;;;;;;6266731;22;20058;-57
2022/03/27 05:03:18;;;;;;;11.25;4.00;;;5.50;99.90;;;;;;6266573;22;20051;-57
2022/03/27 05:05:44;;;;;;;8.70;3.33;;;5.50;99.90;;;;;;6238919;22;20102;-57
2022/03/27 05:08:10;;;;;;;8.43;3.72;;;5.40;99.90;;;;;;6239000;22;20127;-57
2022/03/27 05:10:35;;;;;;;10.75;3.08;;;5.40;99.90;;;;;;6265996;22;20397;-57
2022/03/27 05:13:01;;;;;;;9.00;3.60;;;5.30;99.90;;;;;;6238503;22;20366;-57
2022/03/27 05:15:27;;;;;;;8.82;3.30;;;5.20;99.90;;;;;;6267306;22;20018;-57
2022/03/27 05:17:58;;;;;;;10.07;3.88;;;5.20;99.90;;;;;;6266690;22;20447;-57
2022/03/27 05:20:25;;;;;;;12.20;3.22;;;5.20;99.90;;;;;;6266507;22;20399;-57
2022/03/27 05:22:51;;;;;;;8.07;2.90;;;5.20;99.90;;;;;;6266376;22;20098;-62
2022/03/27 05:25:18;;;;;;;8.18;3.05;;;5.20;99.90;;;;;;6266163;22;20051;-57
2022/03/27 05:27:50;;;;;;;11.52;3.20;;;5.10;99.90;;;;;;6266012;22;20015;-60
2022/03/27 05:30:17;;;;;;;8.98;4.15;;;5.10;99.90;;;;;;6265799;22;20454;-58
2022/03/27 05:32:43;;;;;;;10.45;3.25;;;5.20;99.90;;;;;;6264912;22;20012;-58
2022/03/27 05:35:11;;;;;;;12.20;3.90;;;5.10;99.90;;;;;;6262683;22;20327;-57
2022/03/27 05:37:38;;;;;;;7.00;2.92;;;5.40;99.90;;;;;;6264484;22;20016;-61
2022/03/27 05:40:06;;;;;;;5.65;2.92;;;5.10;99.90;;;;;;6265353;22;20066;-57
2022/03/27 05:42:32;;;;;;;10.93;3.58;;;5.20;99.90;;;;;;6238731;22;20416;-63
2022/03/27 05:44:59;;;;;;;9.40;2.92;;;5.20;99.90;;;;;;6266743;22;20019;-60
2022/03/27 05:47:25;;;;;;;10.25;3.05;;;5.30;99.90;;;;;;6266684;22;20047;-68
2022/03/27 05:49:51;;;;;;;10.13;3.35;;;5.60;99.90;;;;;;6266221;22;20020;-66
2022/03/27 05:52:17;;;;;;;8.65;3.22;;;5.30;99.90;;;;;;6238715;22;20027;-67
2022/03/27 05:54:43;;;;;;;7.85;3.03;;;5.40;99.90;;;;;;6266294;22;20062;-62
2022/03/27 05:57:09;;;;;;;15.32;4.32;;;5.40;99.90;;;;;;6266280;22;20099;-68
2022/03/27 05:59:34;;;;;;;8.07;4.25;;;5.40;99.90;;;;;;6265413;22;20090;-67
2022/03/27 06:02:00;;;;;;;10.50;3.53;;;5.50;99.90;;;;;;6265258;22;20074;-57
2022/03/27 06:04:26;;;;;;;7.80;3.33;;;5.50;99.90;;;;;;6265702;22;20069;-57
2022/03/27 06:06:52;;;;;;;11.57;3.05;;;5.60;99.90;;;;;;6265467;22;20506;-58
2022/03/27 06:09:18;;;;;;;11.50;3.28;;;5.50;99.90;;;;;;6265554;22;20018;-57
2022/03/27 06:11:43;;;;;;;12.77;4.40;;;5.60;99.90;;;;;;6265871;22;20443;-57
2022/03/27 06:14:09;;;;;;;21.77;5.65;;;5.70;99.90;;;;;;6265622;22;20460;-57
2022/03/27 06:16:36;;;;;;;14.02;5.70;;;5.80;99.90;;;;;;6265284;22;20039;-57
2022/03/27 06:19:02;;;;;;;19.17;4.70;;;5.90;99.90;;;;;;6238558;22;20100;-57
2022/03/27 06:21:28;;;;;;;19.35;5.55;;;6.00;99.90;;;;;;6266023;22;20513;-57
2022/03/27 06:23:54;;;;;;;19.00;3.97;;;6.10;99.90;;;;;;6265491;22;20016;-59
2022/03/27 06:26:19;;;;;;;22.42;4.55;;;6.40;99.90;;;;;;6267731;22;20023;-58
2022/03/27 06:28:45;;;;;;;15.30;5.78;;;6.30;99.90;;;;;;6267874;22;20090;-56
2022/03/27 06:31:11;;;;;;;17.92;5.47;;;6.20;99.90;;;;;;6266341;22;20085;-57
2022/03/27 06:33:36;;;;;;;23.88;4.80;;;6.30;99.90;;;;;;6267670;22;20026;-57
2022/03/27 06:36:02;;;;;;;29.50;6.05;;;6.30;99.90;;;;;;6265743;22;20038;-57
2022/03/27 06:38:31;;;;;;;23.98;5.60;;;6.40;99.90;;;;;;6266149;22;20062;-57
2022/03/27 06:40:57;;;;;;;21.73;4.50;;;6.40;99.90;;;;;;6266822;22;20030;-57
2022/03/27 06:43:22;;;;;;;27.20;7.50;;;6.50;99.90;;;;;;6266823;22;20434;-60
2022/03/27 06:45:49;;;;;;;23.20;4.88;;;6.60;99.90;;;;;;6266902;22;20054;-65
2022/03/27 06:48:15;;;;;;;16.23;4.30;;;6.90;99.90;;;;;;6240889;22;20407;-62
2022/03/27 06:50:41;;;;;;;31.23;7.45;;;6.90;99.90;;;;;;6266432;22;20386;-58
2022/03/27 06:53:07;;;;;;;31.83;5.43;;;6.90;99.90;;;;;;6239144;22;20026;-60
2022/03/27 06:55:33;;;;;;;28.70;6.07;;;7.00;99.90;;;;;;6266559;22;20098;-60
2022/03/27 06:57:59;;;;;;;29.35;5.70;;;7.10;99.90;;;;;;6266655;22;20015;-62
2022/03/27 07:03:11;;;;;;;;;;;7.30;99.90;;;;;;6266487;22;20031;-58
2022/03/27 07:05:39;;;;;;;29.58;7.47;;;7.50;99.90;;;;;;6268303;22;20446;-58
2022/03/27 07:08:07;;;;;;;26.77;7.35;;;7.50;99.90;;;;;;6266552;22;20016;-57
2022/03/27 07:10:33;;;;;;;28.58;6.40;;;7.60;99.90;;;;;;6266780;22;20510;-57
2022/03/27 07:12:59;;;;;;;32.83;6.40;;;7.70;99.90;;;;;;6267465;22;20042;-57
2022/03/27 07:15:25;;;;;;;34.42;7.80;;;7.90;99.90;;;;;;6267017;22;20015;-57
2022/03/27 07:17:52;;;;;;;20.70;7.05;;;7.90;99.90;;;;;;6267789;22;20411;-57
2022/03/27 07:20:25;;;;;;;29.00;6.03;;;8.10;99.90;;;;;;6265657;22;20366;-58
2022/03/27 07:22:53;;;;;;;33.25;8.35;;;8.30;99.90;;;;;;6264893;22;20647;-57
2022/03/27 07:25:24;;;;;;;27.73;6.78;;;8.60;99.90;;;;;;6266745;22;20023;-57
2022/03/27 07:27:50;;;;;;;41.33;8.18;;;8.60;99.90;;;;;;6266226;22;20023;-58
2022/03/27 07:30:16;;;;;;;31.77;8.43;;;8.50;99.90;;;;;;6267037;22;20041;-58
2022/03/27 07:32:43;;;;;;;40.88;7.30;;;8.70;99.90;;;;;;6239238;22;20023;-57
2022/03/27 07:35:10;;;;;;;28.67;7.85;;;8.80;99.90;;;;;;6239176;22;20034;-57
2022/03/27 07:37:36;;;;;;;25.63;7.43;;;8.90;99.90;;;;;;6266855;22;20043;-57
2022/03/27 07:40:08;;;;;;;36.78;9.25;;;9.00;99.90;;;;;;6266083;22;20422;-58
2022/03/27 07:42:38;;;;;;;24.52;7.93;;;9.20;99.90;;;;;;6267196;22;20026;-57
2022/03/27 07:45:05;;;;;;;27.42;7.95;;;9.30;99.90;;;;;;6266839;22;20350;-67
2022/03/27 07:47:31;;;;;;;28.17;7.97;;;9.30;99.90;;;;;;6241121;22;20030;-68
2022/03/27 07:49:57;;;;;;;33.30;8.30;;;9.20;99.90;;;;;;6267603;22;20503;-62
2022/03/27 07:52:23;;;;;;;40.22;9.85;;;9.80;99.90;;;;;;6267172;22;20047;-66
2022/03/27 07:54:50;;;;;;;30.80;8.43;;;10.00;99.90;;;;;;6268079;22;20011;-64
2022/03/27 07:57:16;;;;;;;35.50;8.75;;;9.80;99.90;;;;;;6239821;22;20709;-58
2022/03/27 07:59:41;;;;;;;32.03;7.68;;;9.70;99.90;;;;;;6267326;22;20012;-64
2022/03/27 08:02:07;;;;;;;33.92;6.15;;;9.90;99.90;;;;;;6266850;22;20595;-68
2022/03/27 08:04:34;;;;;;;28.08;7.10;;;9.90;99.90;;;;;;6268048;22;20145;-61
2022/03/27 08:07:00;;;;;;;35.05;7.32;;;10.30;99.90;;;;;;6267194;22;20015;-62
2022/03/27 08:09:26;;;;;;;26.27;7.95;;;10.40;99.90;;;;;;6267529;22;20012;-65
2022/03/27 08:11:52;;;;;;;34.70;9.27;;;10.40;99.90;;;;;;6240637;22;20030;-60
2022/03/27 08:14:18;;;;;;;32.15;7.78;;;10.50;99.90;;;;;;6240357;22;20069;-60
2022/03/27 08:16:44;;;;;;;30.63;9.00;;;11.30;99.90;;;;;;6267737;22;20023;-68
2022/03/27 08:19:09;;;;;;;25.88;7.43;;;11.90;99.90;;;;;;6267906;22;20085;-62
2022/03/27 08:21:35;;;;;;;30.98;8.77;;;12.40;99.90;;;;;;6267232;22;20023;-69
2022/03/27 08:24:01;;;;;;;34.47;7.95;;;12.50;99.90;;;;;;6267017;22;20058;-68
2022/03/27 08:29:11;;;;;;;28.42;6.85;;;13.10;99.90;;;;;;6267837;22;20023;-61
2022/03/27 08:31:37;;;;;;;26.77;7.18;;;13.60;99.90;;;;;;6239975;22;20011;-66
2022/03/27 08:34:03;;;;;;;29.02;6.65;;;13.70;99.90;;;;;;6267609;22;20023;-60
2022/03/27 08:36:29;;;;;;;18.95;5.22;;;14.20;99.90;;;;;;6267596;22;20435;-72
2022/03/27 08:38:55;;;;;;;29.35;7.68;;;14.60;99.90;;;;;;6267309;22;20489;-58
2022/03/27 08:41:24;;;;;;;31.10;7.40;;;15.10;99.90;;;;;;6267185;22;20268;-64
2022/03/27 08:43:58;;;;;;;22.80;7.18;;;15.20;99.90;;;;;;6240310;22;20015;-62
2022/03/27 08:46:29;;;;;;;23.08;6.90;;;15.00;99.90;;;;;;6267660;22;20020;-58
2022/03/27 08:49:07;;;;;;;27.20;5.68;;;14.50;99.90;;;;;;6268077;22;20050;-58
2022/03/27 08:52:00;;;;;;;25.25;5.80;;;14.40;99.90;;;;;;6267500;22;20027;-68
2022/03/27 08:54:34;;;;;;;20.02;5.45;;;14.90;99.90;;;;;;6193220;22;20023;-58
2022/03/27 08:57:38;;;;;;;20.60;4.82;;;14.90;99.90;;;;;;6266486;22;20020;-58
2022/03/27 09:00:05;;;;;;;29.10;6.03;;;15.40;99.90;;;;;;6266860;22;20063;-58
2022/03/27 09:02:32;;;;;;;19.45;4.88;;;16.00;99.90;;;;;;6267934;22;20019;-58
2022/03/27 09:04:59;;;;;;;22.25;6.15;;;16.40;99.90;;;;;;6240006;22;20023;-58
2022/03/27 09:07:27;;;;;;;21.02;5.93;;;16.60;99.90;;;;;;6267429;22;20020;-58
2022/03/27 09:09:53;;;;;;;18.35;5.85;;;16.90;99.90;;;;;;6268649;22;20058;-58
2022/03/27 09:12:20;;;;;;;22.40;5.75;;;17.10;99.90;;;;;;6267149;22;20019;-66
2022/03/27 09:14:47;;;;;;;16.90;5.00;;;16.90;99.90;;;;;;6239944;22;20026;-58
2022/03/27 09:17:14;;;;;;;22.02;6.07;;;17.40;99.90;;;;;;6264912;22;20543;-58
2022/03/27 09:19:48;;;;;;;20.02;6.35;;;17.80;99.90;;;;;;6265213;22;20019;-58
2022/03/27 09:22:16;;;;;;;23.67;6.45;;;17.70;99.90;;;;;;6265196;22;20381;-58
2022/03/27 09:24:47;;;;;;;23.85;5.93;;;18.10;99.90;;;;;;6266653;22;20019;-62
2022/03/27 09:27:14;;;;;;;25.00;6.45;;;18.00;99.90;;;;;;6267047;22;20031;-58
2022/03/27 09:29:58;;;;;;;21.55;5.03;;;18.20;99.90;;;;;;6265884;22;20098;-62
2022/03/27 09:32:28;;;;;;;22.33;5.63;;;18.50;99.90;;;;;;6266498;22;20122;-66
2022/03/27 09:35:04;;;;;;;16.20;4.70;;;18.80;99.90;;;;;;6262569;22;20050;-63
2022/03/27 09:37:38;;;;;;;20.92;6.07;;;19.20;99.90;;;;;;6261277;22;20051;-58
2022/03/27 09:40:05;;;;;;;;;;;19.40;99.90;;;;;;6262568;22;20098;-58
2022/03/27 09:42:30;;;;;;;17.77;5.93;;;19.30;99.00;;;;;;6262491;22;20261;-58
2022/03/27 09:45:16;;;;;;;16.67;5.07;;;19.30;99.90;;;;;;6263193;22;20016;-58
2022/03/27 09:47:43;;;;;;;18.90;5.72;;;20.00;99.50;;;;;;6261937;22;20517;-59
2022/03/27 09:50:32;;;;;;;17.60;4.85;;;19.70;99.40;;;;;;6263146;22;20020;-59
2022/03/27 09:53:22;;;;;;;18.17;4.63;;;20.00;99.70;;;;;;6263066;22;20469;-58
2022/03/27 09:56:12;;;;;;;19.58;5.15;;;19.50;98.00;;;;;;6234767;22;20103;-61
2022/03/27 09:58:45;;;;;;;19.30;5.22;;;19.80;99.20;;;;;;6246675;22;20026;-58
2022/03/27 10:01:16;;;;;;;;;;;20.40;99.50;;;;;;6266065;22;20020;-58
2022/03/27 10:04:01;;;;;;;14.18;4.20;;;20.60;97.10;;;;;;6263838;22;20223;-58
2022/03/27 10:06:30;;;;;;;20.17;4.50;;;20.70;97.70;;;;;;6264258;22;20103;-59
2022/03/27 10:08:57;;;;;;;18.42;5.35;;;20.50;99.40;;;;;;6264119;22;20235;-59
2022/03/27 10:11:23;;;;;;;20.02;5.40;;;20.60;99.50;;;;;;6264424;22;20050;-58
2022/03/27 10:13:53;;;;;;;16.48;4.97;;;20.00;99.90;;;;;;6238068;22;20414;-58
2022/03/27 10:16:28;;;;;;;17.38;4.78;;;20.00;98.80;;;;;;6237115;22;20611;-59
2022/03/27 10:18:56;;;;;;;17.42;5.32;;;20.30;96.70;;;;;;6265163;22;20024;-58
2022/03/27 10:21:25;;;;;;;18.77;4.82;;;20.30;98.40;;;;;;6264008;22;20596;-59
2022/03/27 10:24:04;;;;;;;11.80;3.90;;;20.10;96.70;;;;;;6264570;22;20137;-59
2022/03/27 10:26:32;;;;;;;22.13;5.38;;;20.50;97.90;;;;;;6264786;22;20050;-58
2022/03/27 10:29:01;;;;;;;15.25;4.97;;;20.30;98.10;;;;;;6264676;22;20011;-58
2022/03/27 10:31:27;;;;;;;16.05;5.22;;;20.80;96.70;;;;;;6264556;22;20023;-58
2022/03/27 10:33:55;;;;;;;13.70;4.10;;;20.80;94.60;;;;;;6264358;22;20401;-58
2022/03/27 10:36:25;;;;;;;18.27;3.90;;;21.00;96.70;;;;;;6264285;22;20624;-58
2022/03/27 10:39:11;;;;;;;14.55;4.50;;;20.30;97.20;;;;;;6265003;22;20541;-58
2022/03/27 10:41:56;;;;;;;12.35;3.42;;;21.10;94.70;;;;;;6265129;22;20864;-58
2022/03/27 10:44:34;;;;;;;16.52;4.63;;;21.20;95.00;;;;;;6265357;22;20472;-58
2022/03/27 10:47:16;;;;;;;11.95;3.42;;;21.20;93.50;;;;;;6264799;22;20023;-59
2022/03/27 10:50:01;;;;;;;14.38;3.95;;;21.60;93.10;;;;;;6264615;22;20022;-58
2022/03/27 10:52:56;;;;;;;15.63;4.03;;;21.70;95.20;;;;;;6265162;22;20442;-58
2022/03/27 10:55:34;;;;;;;12.00;3.92;;;21.60;92.90;;;;;;6264196;22;20023;-59
2022/03/27 10:58:22;;;;;;;11.35;3.47;;;21.40;95.00;;;;;;6264543;22;20019;-59
2022/03/27 11:00:48;;;;;;;15.93;4.10;;;22.00;94.40;;;;;;6264156;22;20015;-58
2022/03/27 11:03:44;;;;;;;13.40;3.60;;;21.90;93.40;;;;;;6265443;22;20025;-58
2022/03/27 11:06:30;;;;;;;9.98;3.10;;;22.10;92.50;;;;;;6264400;22;20012;-58
2022/03/27 11:09:02;;;;;;;14.90;3.38;;;22.00;92.40;;;;;;6264151;22;20040;-58
2022/03/27 11:11:33;;;;;;;13.68;3.88;;;21.50;93.30;;;;;;6265559;22;20011;-58
2022/03/27 11:14:00;;;;;;;14.25;3.05;;;20.40;90.70;;;;;;6265211;22;20335;-58
2022/03/27 11:16:26;;;;;;;11.77;3.80;;;21.10;92.60;;;;;;6265189;22;20091;-59
2022/03/27 11:18:51;;;;;;;10.77;2.95;;;20.90;91.50;;;;;;6265274;22;20092;-58
2022/03/27 11:21:29;;;;;;;10.10;2.80;;;20.60;91.10;;;;;;6264146;22;20462;-58
2022/03/27 11:24:05;;;;;;;12.52;3.10;;;21.40;90.60;;;;;;6264690;22;20054;-58
2022/03/27 11:26:30;;;;;;;12.38;2.47;;;21.70;90.00;;;;;;6265135;22;20091;-59
2022/03/27 11:29:05;;;;;;;16.98;3.65;;;21.10;90.50;;;;;;6264857;22;20091;-58
2022/03/27 11:31:33;;;;;;;12.95;3.25;;;21.60;90.70;;;;;;6263938;22;20026;-59
2022/03/27 11:34:04;;;;;;;9.68;3.55;;;22.80;85.90;;;;;;6264567;22;20051;-59
2022/03/27 11:36:32;;;;;;;12.38;3.55;;;22.60;85.30;;;;;;6263643;22;20027;-59
2022/03/27 11:39:08;;;;;;;16.42;3.38;;;22.40;88.40;;;;;;6262752;22;20481;-59
2022/03/27 11:41:42;;;;;;;15.15;4.13;;;22.00;86.30;;;;;;6263580;22;20098;-59
2022/03/27 11:47:23;;;;;;;8.88;2.92;;;20.50;89.40;;;;;;6263759;22;20070;-59
2022/03/27 11:49:51;;;;;;;10.32;3.22;;;21.60;88.80;;;;;;6263948;22;20396;-58
2022/03/27 11:52:20;;;;;;;13.88;3.28;;;21.70;90.10;;;;;;6263198;22;20062;-59
2022/03/27 11:54:47;;;;;;;11.02;3.13;;;21.90;88.80;;;;;;6264121;22;20446;-59
2022/03/27 11:57:13;;;;;;;12.85;3.70;;;21.70;90.70;;;;;;6263723;22;20015;-59
2022/03/27 11:59:50;;;;;;;12.63;2.80;;;22.50;90.00;;;;;;6263219;22;20023;-58
2022/03/27 12:02:18;;;;;;;11.55;3.13;;;22.60;84.40;;;;;;6264129;22;20081;-59
2022/03/27 12:04:55;;;;;;;12.32;2.55;;;22.80;88.80;;;;;;6263487;22;20043;-59
2022/03/27 12:07:22;;;;;;;9.85;3.63;;;23.20;84.50;;;;;;6263789;22;20429;-59
2022/03/27 12:10:02;;;;;;;12.32;3.40;;;23.30;84.30;;;;;;6235905;22;20020;-59
2022/03/27 12:12:28;;;;;;;9.57;2.95;;;23.00;82.50;;;;;;6262620;22;20030;-58
2022/03/27 12:15:09;;;;;;;8.63;2.95;;;23.40;86.70;;;;;;6263804;22;20047;-59
2022/03/27 12:17:45;;;;;;;8.93;2.50;;;23.70;83.00;;;;;;6263092;22;20055;-59
2022/03/27 12:20:12;;;;;;;7.88;2.20;;;23.90;82.00;;;;;;6263224;22;20019;-59
2022/03/27 12:22:41;;;;;;;11.80;3.40;;;24.30;84.10;;;;;;6263575;22;20386;-59
2022/03/27 12:25:18;;;;;;;14.43;3.28;;;24.70;82.90;;;;;;6263393;22;20385;-59
2022/03/27 12:30:36;;;;;;;13.43;3.28;;;23.50;81.10;;;;;;6236160;22;20024;-59
2022/03/27 12:33:03;;;;;;;13.65;3.50;;;24.00;81.10;;;;;;6208466;22;20054;-59
2022/03/27 12:35:31;;;;;;;10.00;3.53;;;24.40;82.60;;;;;;6234939;22;20622;-59
2022/03/27 12:37:58;;;;;;;11.40;3.17;;;24.60;79.90;;;;;;6262337;22;20529;-59
2022/03/27 12:40:25;;;;;;;10.23;2.83;;;25.00;80.90;;;;;;6263209;22;20023;-59
2022/03/27 12:42:53;;;;;;;8.95;2.75;;;25.20;77.20;;;;;;6262980;22;20022;-59
2022/03/27 12:45:36;;;;;;;9.43;3.15;;;26.30;75.70;;;;;;6235697;22;20202;-64
2022/03/27 12:48:21;;;;;;;10.07;3.13;;;28.30;76.40;;;;;;6263608;22;20026;-61
2022/03/27 12:50:52;;;;;;;8.32;2.95;;;30.70;73.00;;;;;;6263500;22;20024;-64
2022/03/27 12:53:20;;;;;;;10.45;2.80;;;33.00;71.40;;;;;;6263898;22;20026;-62
2022/03/27 12:56:17;;;;;;;8.65;2.60;;;34.60;69.00;;;;;;6263549;22;20023;-64
2022/03/27 12:58:43;;;;;;;11.43;2.67;;;34.80;68.00;;;;;;6210673;22;20024;-64
2022/03/27 13:01:17;;;;;;;9.18;3.45;;;34.90;66.20;;;;;;6262420;22;20022;-64
2022/03/27 13:04:04;;;;;;;11.80;3.25;;;35.20;62.30;;;;;;6261109;22;20020;-63
2022/03/27 13:06:43;;;;;;;11.30;3.83;;;34.70;62.70;;;;;;6262952;22;20451;-63
2022/03/27 13:09:09;;;;;;;8.35;3.35;;;34.00;62.20;;;;;;6235675;22;20019;-65
2022/03/27 13:11:43;;;;;;;12.95;3.45;;;35.00;62.70;;;;;;6236324;22;20027;-68